sensor_id;sensor_type;location;lat;lon;timestamp;pressure;altitude;pressure_sealevel;temperature;humidity
72570;BME280;60594;50.204;8.844;2023-05-03T00:00:02;101075.88;;;6.25;81.76
72570;BME280;60594;50.204;8.844;2023-05-03T00:02:54;101069.38;;;6.13;82.44
72570;BME280;60594;50.204;8.844;2023-05-03T00:05:24;101072.25;;;6.09;83.35
72570;BME280;60594;50.204;8.844;2023-05-03T00:07:51;101061.41;;;5.96;84.54
72570;BME280;60594;50.204;8.844;2023-05-03T00:10:18;101069.09;;;6.01;83.38
72570;BME280;60594;50.204;8.844;2023-05-03T00:12:46;101067.66;;;5.94;83.56
72570;BME280;60594;50.204;8.844;2023-05-03T00:15:13;101066.38;;;6.02;84.17
72570;BME280;60594;50.204;8.844;2023-05-03T00:17:39;101058.16;;;6.08;83.78
72570;BME280;60594;50.204;8.844;2023-05-03T00:20:06;101061.56;;;6.10;83.75
72570;BME280;60594;50.204;8.844;2023-05-03T00:22:33;101057.16;;;6.11;83.83
72570;BME280;60594;50.204;8.844;2023-05-03T00:25:00;101048.34;;;6.10;84.36
72570;BME280;60594;50.204;8.844;2023-05-03T00:27:27;101050.16;;;6.27;83.08
72570;BME280;60594;50.204;8.844;2023-05-03T00:29:54;101048.94;;;6.34;83.55
72570;BME280;60594;50.204;8.844;2023-05-03T00:32:22;101050.03;;;6.30;83.08
72570;BME280;60594;50.204;8.844;2023-05-03T00:34:56;101052.59;;;6.31;83.04
72570;BME280;60594;50.204;8.844;2023-05-03T00:37:24;101045.97;;;6.23;82.54
72570;BME280;60594;50.204;8.844;2023-05-03T00:39:52;101049.94;;;6.14;83.40
72570;BME280;60594;50.204;8.844;2023-05-03T00:42:18;101053.50;;;6.13;82.60
72570;BME280;60594;50.204;8.844;2023-05-03T00:44:46;101046.78;;;6.06;83.28
72570;BME280;60594;50.204;8.844;2023-05-03T00:47:14;101050.09;;;5.93;84.76
72570;BME280;60594;50.204;8.844;2023-05-03T00:49:41;101045.22;;;6.02;83.80
72570;BME280;60594;50.204;8.844;2023-05-03T00:52:08;101042.88;;;5.96;83.91
72570;BME280;60594;50.204;8.844;2023-05-03T00:54:41;101036.78;;;5.94;83.88
72570;BME280;60594;50.204;8.844;2023-05-03T00:57:07;101037.72;;;5.93;83.71
72570;BME280;60594;50.204;8.844;2023-05-03T00:59:35;101038.00;;;5.87;83.11
72570;BME280;60594;50.204;8.844;2023-05-03T01:02:02;101026.84;;;5.99;82.02
72570;BME280;60594;50.204;8.844;2023-05-03T01:04:32;101024.38;;;5.96;82.47
72570;BME280;60594;50.204;8.844;2023-05-03T01:07:08;101016.91;;;6.04;82.50
72570;BME280;60594;50.204;8.844;2023-05-03T01:15:30;101037.38;;;5.82;84.37
72570;BME280;60594;50.204;8.844;2023-05-03T01:18:09;101027.06;;;5.76;83.00
72570;BME280;60594;50.204;8.844;2023-05-03T01:20:45;101025.59;;;5.89;83.38
72570;BME280;60594;50.204;8.844;2023-05-03T01:23:27;101019.97;;;5.95;82.75
72570;BME280;60594;50.204;8.844;2023-05-03T01:25:55;101022.19;;;6.04;81.91
72570;BME280;60594;50.204;8.844;2023-05-03T01:28:25;101020.50;;;6.03;81.88
72570;BME280;60594;50.204;8.844;2023-05-03T01:30:53;101021.06;;;5.91;82.18
72570;BME280;60594;50.204;8.844;2023-05-03T01:33:26;101025.59;;;5.89;82.62
72570;BME280;60594;50.204;8.844;2023-05-03T01:36:04;101027.84;;;5.78;82.79
72570;BME280;60594;50.204;8.844;2023-05-03T01:38:36;101015.13;;;5.68;83.13
72570;BME280;60594;50.204;8.844;2023-05-03T01:41:09;101016.97;;;5.47;84.11
72570;BME280;60594;50.204;8.844;2023-05-03T01:43:37;101019.19;;;5.38;83.00
72570;BME280;60594;50.204;8.844;2023-05-03T01:46:07;101007.75;;;5.19;84.08
72570;BME280;60594;50.204;8.844;2023-05-03T01:48:39;101015.44;;;5.05;84.55
72570;BME280;60594;50.204;8.844;2023-05-03T01:51:06;101022.97;;;5.14;83.66
72570;BME280;60594;50.204;8.844;2023-05-03T01:53:32;101019.88;;;5.04;85.37
72570;BME280;60594;50.204;8.844;2023-05-03T01:55:59;101016.78;;;4.95;84.82
72570;BME280;60594;50.204;8.844;2023-05-03T01:58:25;101019.63;;;4.90;85.34
72570;BME280;60594;50.204;8.844;2023-05-03T02:00:53;101011.19;;;4.82;86.15
72570;BME280;60594;50.204;8.844;2023-05-03T02:03:23;101014.16;;;4.95;83.89
72570;BME280;60594;50.204;8.844;2023-05-03T02:05:50;101022.53;;;4.84;86.13
72570;BME280;60594;50.204;8.844;2023-05-03T02:08:18;101013.81;;;4.82;85.75
72570;BME280;60594;50.204;8.844;2023-05-03T02:10:48;101014.66;;;4.83;84.92
72570;BME280;60594;50.204;8.844;2023-05-03T02:13:16;101025.50;;;4.77;87.07
72570;BME280;60594;50.204;8.844;2023-05-03T02:15:44;101024.50;;;4.79;85.28
72570;BME280;60594;50.204;8.844;2023-05-03T02:18:10;101032.56;;;4.76;86.22
72570;BME280;60594;50.204;8.844;2023-05-03T02:20:37;101024.38;;;4.62;87.20
72570;BME280;60594;50.204;8.844;2023-05-03T02:23:04;101024.06;;;4.70;86.85
72570;BME280;60594;50.204;8.844;2023-05-03T02:25:32;101024.44;;;4.61;86.76
72570;BME280;60594;50.204;8.844;2023-05-03T02:28:03;101026.22;;;4.60;87.02
72570;BME280;60594;50.204;8.844;2023-05-03T02:30:30;101030.84;;;4.55;87.86
72570;BME280;60594;50.204;8.844;2023-05-03T02:32:57;101033.28;;;4.60;87.04
72570;BME280;60594;50.204;8.844;2023-05-03T02:35:24;101040.44;;;4.58;87.11
72570;BME280;60594;50.204;8.844;2023-05-03T02:37:55;101047.34;;;4.60;86.58
72570;BME280;60594;50.204;8.844;2023-05-03T02:40:22;101037.13;;;4.73;85.21
72570;BME280;60594;50.204;8.844;2023-05-03T02:42:53;101047.06;;;4.66;85.12
72570;BME280;60594;50.204;8.844;2023-05-03T02:45:34;101049.19;;;4.58;86.01
72570;BME280;60594;50.204;8.844;2023-05-03T02:48:01;101058.16;;;4.54;85.93
72570;BME280;60594;50.204;8.844;2023-05-03T02:50:27;101053.06;;;4.50;85.27
72570;BME280;60594;50.204;8.844;2023-05-03T02:52:54;101057.44;;;4.29;87.80
72570;BME280;60594;50.204;8.844;2023-05-03T02:55:22;101056.50;;;4.32;87.12
72570;BME280;60594;50.204;8.844;2023-05-03T02:57:49;101049.47;;;4.31;87.11
72570;BME280;60594;50.204;8.844;2023-05-03T03:00:20;101054.25;;;4.21;88.78
72570;BME280;60594;50.204;8.844;2023-05-03T03:02:48;101043.72;;;4.21;87.64
72570;BME280;60594;50.204;8.844;2023-05-03T03:05:15;101037.44;;;4.24;87.87
72570;BME280;60594;50.204;8.844;2023-05-03T03:07:47;101040.31;;;4.19;88.42
72570;BME280;60594;50.204;8.844;2023-05-03T03:10:14;101037.97;;;4.12;87.73
72570;BME280;60594;50.204;8.844;2023-05-03T03:12:40;101033.16;;;4.21;87.39
72570;BME280;60594;50.204;8.844;2023-05-03T03:15:11;101031.47;;;4.20;86.99
72570;BME280;60594;50.204;8.844;2023-05-03T03:17:39;101032.50;;;4.16;86.87
72570;BME280;60594;50.204;8.844;2023-05-03T03:20:12;101037.03;;;4.13;87.80
72570;BME280;60594;50.204;8.844;2023-05-03T03:22:41;101042.56;;;4.07;88.43
72570;BME280;60594;50.204;8.844;2023-05-03T03:25:12;101047.03;;;4.05;88.68
72570;BME280;60594;50.204;8.844;2023-05-03T03:27:39;101037.84;;;3.93;89.03
72570;BME280;60594;50.204;8.844;2023-05-03T03:30:07;101028.09;;;3.95;88.32
72570;BME280;60594;50.204;8.844;2023-05-03T03:32:37;101032.63;;;3.92;88.73
72570;BME280;60594;50.204;8.844;2023-05-03T03:35:08;101027.53;;;3.87;89.33
72570;BME280;60594;50.204;8.844;2023-05-03T03:37:36;101030.22;;;3.86;89.37
72570;BME280;60594;50.204;8.844;2023-05-03T03:40:05;101030.97;;;3.89;88.30
72570;BME280;60594;50.204;8.844;2023-05-03T03:42:36;101037.66;;;3.76;89.83
72570;BME280;60594;50.204;8.844;2023-05-03T03:45:04;101034.13;;;3.76;90.33
72570;BME280;60594;50.204;8.844;2023-05-03T03:47:31;101028.53;;;3.85;88.43
72570;BME280;60594;50.204;8.844;2023-05-03T03:49:59;101038.88;;;3.89;89.12
72570;BME280;60594;50.204;8.844;2023-05-03T03:52:29;101041.59;;;3.88;88.90
72570;BME280;60594;50.204;8.844;2023-05-03T03:54:56;101033.97;;;3.80;88.90
72570;BME280;60594;50.204;8.844;2023-05-03T03:57:24;101041.31;;;3.94;87.79
72570;BME280;60594;50.204;8.844;2023-05-03T04:00:00;101043.25;;;3.90;88.23
72570;BME280;60594;50.204;8.844;2023-05-03T04:02:38;101043.41;;;3.86;89.06
72570;BME280;60594;50.204;8.844;2023-05-03T04:05:11;101039.97;;;3.84;88.93
72570;BME280;60594;50.204;8.844;2023-05-03T04:07:39;101042.00;;;3.77;88.95
72570;BME280;60594;50.204;8.844;2023-05-03T04:10:06;101041.75;;;3.83;88.27
72570;BME280;60594;50.204;8.844;2023-05-03T04:12:34;101042.38;;;3.68;89.83
72570;BME280;60594;50.204;8.844;2023-05-03T04:15:05;101046.31;;;3.56;89.70
72570;BME280;60594;50.204;8.844;2023-05-03T04:17:32;101054.34;;;3.53;90.21
72570;BME280;60594;50.204;8.844;2023-05-03T04:20:02;101057.41;;;3.64;89.81
72570;BME280;60594;50.204;8.844;2023-05-03T04:22:34;101060.31;;;3.58;90.05
72570;BME280;60594;50.204;8.844;2023-05-03T04:25:04;101060.19;;;3.62;89.81
72570;BME280;60594;50.204;8.844;2023-05-03T04:27:35;101065.50;;;3.37;91.13
72570;BME280;60594;50.204;8.844;2023-05-03T04:30:03;101070.34;;;3.49;90.33
72570;BME280;60594;50.204;8.844;2023-05-03T04:32:30;101061.28;;;3.56;89.45
72570;BME280;60594;50.204;8.844;2023-05-03T04:35:03;101064.16;;;3.50;90.89
72570;BME280;60594;50.204;8.844;2023-05-03T04:37:36;101057.31;;;3.67;89.57
72570;BME280;60594;50.204;8.844;2023-05-03T04:40:06;101060.81;;;3.68;88.59
72570;BME280;60594;50.204;8.844;2023-05-03T04:42:36;101064.53;;;3.63;88.69
72570;BME280;60594;50.204;8.844;2023-05-03T04:45:05;101072.25;;;3.67;89.48
72570;BME280;60594;50.204;8.844;2023-05-03T04:47:35;101077.28;;;3.73;89.28
72570;BME280;60594;50.204;8.844;2023-05-03T04:50:02;101078.28;;;3.71;89.46
72570;BME280;60594;50.204;8.844;2023-05-03T04:52:30;101076.78;;;3.63;88.71
72570;BME280;60594;50.204;8.844;2023-05-03T04:54:57;101074.63;;;3.51;90.28
72570;BME280;60594;50.204;8.844;2023-05-03T04:57:24;101078.09;;;3.52;90.37
72570;BME280;60594;50.204;8.844;2023-05-03T04:59:51;101062.38;;;3.50;91.00
72570;BME280;60594;50.204;8.844;2023-05-03T05:02:19;101066.63;;;3.54;90.27
72570;BME280;60594;50.204;8.844;2023-05-03T05:04:47;101064.88;;;3.53;90.86
72570;BME280;60594;50.204;8.844;2023-05-03T05:07:18;101060.69;;;3.71;89.86
72570;BME280;60594;50.204;8.844;2023-05-03T05:09:46;101076.31;;;3.76;90.36
72570;BME280;60594;50.204;8.844;2023-05-03T05:12:14;101074.44;;;3.79;90.35
72570;BME280;60594;50.204;8.844;2023-05-03T05:14:42;101071.16;;;3.72;90.73
72570;BME280;60594;50.204;8.844;2023-05-03T05:17:10;101070.66;;;3.86;90.64
72570;BME280;60594;50.204;8.844;2023-05-03T05:19:38;101076.97;;;4.04;88.96
72570;BME280;60594;50.204;8.844;2023-05-03T05:22:04;101077.53;;;4.12;89.36
72570;BME280;60594;50.204;8.844;2023-05-03T05:24:45;101082.78;;;4.12;90.37
72570;BME280;60594;50.204;8.844;2023-05-03T05:27:13;101082.25;;;4.25;88.46
72570;BME280;60594;50.204;8.844;2023-05-03T05:29:42;101089.75;;;4.36;88.55
72570;BME280;60594;50.204;8.844;2023-05-03T05:32:10;101088.88;;;4.35;89.45
72570;BME280;60594;50.204;8.844;2023-05-03T05:34:37;101094.09;;;4.37;89.40
72570;BME280;60594;50.204;8.844;2023-05-03T05:37:04;101087.44;;;4.27;90.53
72570;BME280;60594;50.204;8.844;2023-05-03T05:39:31;101089.28;;;4.46;88.51
72570;BME280;60594;50.204;8.844;2023-05-03T05:41:58;101081.44;;;4.45;89.99
72570;BME280;60594;50.204;8.844;2023-05-03T05:44:25;101087.13;;;4.56;89.27
72570;BME280;60594;50.204;8.844;2023-05-03T05:46:52;101078.56;;;4.51;89.50
72570;BME280;60594;50.204;8.844;2023-05-03T05:49:19;101087.66;;;4.64;89.86
72570;BME280;60594;50.204;8.844;2023-05-03T05:51:46;101083.47;;;4.80;89.20
72570;BME280;60594;50.204;8.844;2023-05-03T05:54:14;101089.28;;;4.88;88.71
72570;BME280;60594;50.204;8.844;2023-05-03T05:56:42;101075.59;;;4.98;89.68
72570;BME280;60594;50.204;8.844;2023-05-03T05:59:10;101085.00;;;4.85;89.60
72570;BME280;60594;50.204;8.844;2023-05-03T06:01:36;101072.84;;;5.01;89.58
72570;BME280;60594;50.204;8.844;2023-05-03T06:04:08;101078.16;;;5.20;89.05
72570;BME280;60594;50.204;8.844;2023-05-03T06:06:36;101068.19;;;5.26;87.01
72570;BME280;60594;50.204;8.844;2023-05-03T06:09:04;101066.25;;;5.30;86.63
72570;BME280;60594;50.204;8.844;2023-05-03T06:11:34;101068.13;;;5.28;87.00
72570;BME280;60594;50.204;8.844;2023-05-03T06:14:04;101076.69;;;5.33;86.93
72570;BME280;60594;50.204;8.844;2023-05-03T06:16:36;101070.41;;;5.35;87.01
72570;BME280;60594;50.204;8.844;2023-05-03T06:19:03;101078.16;;;5.58;85.79
72570;BME280;60594;50.204;8.844;2023-05-03T06:21:31;101075.38;;;5.61;86.00
72570;BME280;60594;50.204;8.844;2023-05-03T06:24:00;101071.66;;;5.65;86.84
72570;BME280;60594;50.204;8.844;2023-05-03T06:26:29;101065.72;;;5.60;87.74
72570;BME280;60594;50.204;8.844;2023-05-03T06:28:56;101069.88;;;5.84;85.75
72570;BME280;60594;50.204;8.844;2023-05-03T06:31:23;101064.53;;;5.86;87.04
72570;BME280;60594;50.204;8.844;2023-05-03T06:33:50;101069.81;;;5.86;86.83
72570;BME280;60594;50.204;8.844;2023-05-03T06:36:19;101072.13;;;5.93;88.54
72570;BME280;60594;50.204;8.844;2023-05-03T06:38:46;101080.75;;;6.15;84.19
72570;BME280;60594;50.204;8.844;2023-05-03T06:41:13;101072.00;;;6.13;86.16
72570;BME280;60594;50.204;8.844;2023-05-03T06:43:39;101083.09;;;6.21;86.58
72570;BME280;60594;50.204;8.844;2023-05-03T06:46:06;101080.34;;;6.41;82.09
72570;BME280;60594;50.204;8.844;2023-05-03T06:48:33;101079.81;;;6.52;83.38
72570;BME280;60594;50.204;8.844;2023-05-03T06:51:00;101077.63;;;6.60;84.72
72570;BME280;60594;50.204;8.844;2023-05-03T06:53:28;101075.22;;;6.55;81.82
72570;BME280;60594;50.204;8.844;2023-05-03T06:55:54;101075.91;;;6.59;82.88
72570;BME280;60594;50.204;8.844;2023-05-03T06:58:21;101071.75;;;6.72;85.46
72570;BME280;60594;50.204;8.844;2023-05-03T07:00:52;101067.97;;;6.93;82.83
72570;BME280;60594;50.204;8.844;2023-05-03T07:03:19;101068.63;;;6.98;84.24
72570;BME280;60594;50.204;8.844;2023-05-03T07:05:46;101066.09;;;7.12;83.76
72570;BME280;60594;50.204;8.844;2023-05-03T07:08:13;101072.47;;;7.25;82.13
72570;BME280;60594;50.204;8.844;2023-05-03T07:10:40;101062.66;;;7.27;83.08
72570;BME280;60594;50.204;8.844;2023-05-03T07:13:08;101051.38;;;7.39;81.42
72570;BME280;60594;50.204;8.844;2023-05-03T07:15:34;101059.47;;;7.53;80.90
72570;BME280;60594;50.204;8.844;2023-05-03T07:18:02;101061.44;;;7.65;81.61
72570;BME280;60594;50.204;8.844;2023-05-03T07:20:28;101056.84;;;7.84;78.47
72570;BME280;60594;50.204;8.844;2023-05-03T07:22:55;101059.59;;;7.98;74.90
72570;BME280;60594;50.204;8.844;2023-05-03T07:25:22;101058.13;;;8.08;74.61
72570;BME280;60594;50.204;8.844;2023-05-03T07:27:49;101058.38;;;8.19;75.60
72570;BME280;60594;50.204;8.844;2023-05-03T07:30:15;101045.38;;;8.30;75.58
72570;BME280;60594;50.204;8.844;2023-05-03T07:32:43;101059.16;;;8.52;74.45
72570;BME280;60594;50.204;8.844;2023-05-03T07:35:09;101055.28;;;8.58;75.70
72570;BME280;60594;50.204;8.844;2023-05-03T07:37:36;101053.53;;;8.57;75.16
72570;BME280;60594;50.204;8.844;2023-05-03T07:40:07;101067.06;;;8.68;74.60
72570;BME280;60594;50.204;8.844;2023-05-03T07:42:36;101053.50;;;8.72;75.36
72570;BME280;60594;50.204;8.844;2023-05-03T07:45:03;101056.38;;;8.83;74.11
72570;BME280;60594;50.204;8.844;2023-05-03T07:47:30;101052.38;;;9.06;70.59
72570;BME280;60594;50.204;8.844;2023-05-03T07:49:59;101059.38;;;9.07;72.79
72570;BME280;60594;50.204;8.844;2023-05-03T07:52:27;101057.69;;;9.20;70.80
72570;BME280;60594;50.204;8.844;2023-05-03T07:54:54;101055.69;;;9.23;72.56
72570;BME280;60594;50.204;8.844;2023-05-03T07:57:21;101059.53;;;9.33;71.74
72570;BME280;60594;50.204;8.844;2023-05-03T07:59:49;101057.06;;;9.44;69.63
72570;BME280;60594;50.204;8.844;2023-05-03T08:02:16;101056.84;;;9.61;70.63
72570;BME280;60594;50.204;8.844;2023-05-03T08:04:43;101049.22;;;9.69;67.73
72570;BME280;60594;50.204;8.844;2023-05-03T08:07:10;101042.09;;;9.70;68.16
72570;BME280;60594;50.204;8.844;2023-05-03T08:09:37;101039.16;;;9.74;67.15
72570;BME280;60594;50.204;8.844;2023-05-03T08:12:03;101036.59;;;9.73;67.10
72570;BME280;60594;50.204;8.844;2023-05-03T08:14:30;101045.13;;;9.92;67.33
72570;BME280;60594;50.204;8.844;2023-05-03T08:16:58;101044.16;;;9.93;66.87
72570;BME280;60594;50.204;8.844;2023-05-03T08:19:26;101032.34;;;10.11;64.63
72570;BME280;60594;50.204;8.844;2023-05-03T08:21:53;101045.13;;;10.32;66.16
72570;BME280;60594;50.204;8.844;2023-05-03T08:24:21;101033.72;;;10.30;64.87
72570;BME280;60594;50.204;8.844;2023-05-03T08:26:49;101038.56;;;10.51;61.49
72570;BME280;60594;50.204;8.844;2023-05-03T08:29:18;101040.44;;;10.63;61.60
72570;BME280;60594;50.204;8.844;2023-05-03T08:31:46;101032.88;;;10.69;61.03
72570;BME280;60594;50.204;8.844;2023-05-03T08:34:12;101029.69;;;10.77;62.45
72570;BME280;60594;50.204;8.844;2023-05-03T08:36:39;101033.44;;;10.87;61.76
72570;BME280;60594;50.204;8.844;2023-05-03T08:39:06;101036.44;;;10.95;63.30
72570;BME280;60594;50.204;8.844;2023-05-03T08:41:38;101028.03;;;11.01;61.35
72570;BME280;60594;50.204;8.844;2023-05-03T08:44:07;101027.28;;;11.24;62.20
72570;BME280;60594;50.204;8.844;2023-05-03T08:46:37;101031.34;;;11.29;59.75
72570;BME280;60594;50.204;8.844;2023-05-03T08:49:05;101026.84;;;11.55;61.88
72570;BME280;60594;50.204;8.844;2023-05-03T08:51:33;101032.63;;;11.74;61.66
72570;BME280;60594;50.204;8.844;2023-05-03T08:54:00;101036.19;;;11.85;58.60
72570;BME280;60594;50.204;8.844;2023-05-03T08:56:38;101038.00;;;11.97;56.77
72570;BME280;60594;50.204;8.844;2023-05-03T08:59:08;101039.50;;;12.01;58.25
72570;BME280;60594;50.204;8.844;2023-05-03T09:01:36;101036.47;;;12.06;56.54
72570;BME280;60594;50.204;8.844;2023-05-03T09:04:03;101030.28;;;12.05;55.40
72570;BME280;60594;50.204;8.844;2023-05-03T09:06:30;101030.59;;;12.01;58.94
72570;BME280;60594;50.204;8.844;2023-05-03T09:09:00;101040.53;;;12.35;56.43
72570;BME280;60594;50.204;8.844;2023-05-03T09:11:32;101028.41;;;12.65;55.85
72570;BME280;60594;50.204;8.844;2023-05-03T09:14:16;101036.97;;;13.16;55.94
72570;BME280;60594;50.204;8.844;2023-05-03T09:16:44;101038.22;;;13.67;53.48
72570;BME280;60594;50.204;8.844;2023-05-03T09:19:13;101040.50;;;14.16;54.44
72570;BME280;60594;50.204;8.844;2023-05-03T09:21:42;101033.38;;;14.37;51.03
72570;BME280;60594;50.204;8.844;2023-05-03T09:24:15;101032.19;;;14.41;51.65
72570;BME280;60594;50.204;8.844;2023-05-03T09:26:43;101023.44;;;14.28;51.04
72570;BME280;60594;50.204;8.844;2023-05-03T09:29:26;101020.22;;;14.45;51.82
72570;BME280;60594;50.204;8.844;2023-05-03T09:31:57;101021.28;;;14.42;51.51
72570;BME280;60594;50.204;8.844;2023-05-03T09:34:24;101019.81;;;14.49;52.86
72570;BME280;60594;50.204;8.844;2023-05-03T09:36:51;101015.13;;;14.62;50.31
72570;BME280;60594;50.204;8.844;2023-05-03T09:39:18;101013.72;;;14.99;52.25
72570;BME280;60594;50.204;8.844;2023-05-03T09:41:46;101013.38;;;15.54;52.53
72570;BME280;60594;50.204;8.844;2023-05-03T09:44:12;101006.81;;;15.77;50.24
72570;BME280;60594;50.204;8.844;2023-05-03T09:47:05;100999.53;;;15.59;47.14
72570;BME280;60594;50.204;8.844;2023-05-03T09:49:32;101000.19;;;15.51;50.21
72570;BME280;60594;50.204;8.844;2023-05-03T09:52:00;101001.78;;;15.63;50.41
72570;BME280;60594;50.204;8.844;2023-05-03T09:54:27;101005.72;;;15.29;46.88
72570;BME280;60594;50.204;8.844;2023-05-03T09:56:54;101006.31;;;15.53;47.87
72570;BME280;60594;50.204;8.844;2023-05-03T09:59:21;101003.34;;;15.66;49.40
72570;BME280;60594;50.204;8.844;2023-05-03T10:01:47;101002.44;;;15.86;50.61
72570;BME280;60594;50.204;8.844;2023-05-03T10:04:17;100991.31;;;15.60;46.24
72570;BME280;60594;50.204;8.844;2023-05-03T10:06:48;100985.84;;;15.71;49.17
72570;BME280;60594;50.204;8.844;2023-05-03T10:09:17;100986.75;;;15.51;50.80
72570;BME280;60594;50.204;8.844;2023-05-03T10:11:52;100987.97;;;15.68;54.92
72570;BME280;60594;50.204;8.844;2023-05-03T10:14:20;100984.09;;;16.10;52.26
72570;BME280;60594;50.204;8.844;2023-05-03T10:16:56;100977.91;;;16.19;49.14
72570;BME280;60594;50.204;8.844;2023-05-03T10:22:08;100972.25;;;16.12;51.23
72570;BME280;60594;50.204;8.844;2023-05-03T10:24:36;100975.19;;;16.00;47.59
72570;BME280;60594;50.204;8.844;2023-05-03T10:27:06;100972.63;;;15.98;47.06
72570;BME280;60594;50.204;8.844;2023-05-03T10:32:03;100963.31;;;15.53;48.03
72570;BME280;60594;50.204;8.844;2023-05-03T10:34:35;100976.31;;;15.58;50.24
72570;BME280;60594;50.204;8.844;2023-05-03T10:37:08;100970.66;;;16.19;51.42
72570;BME280;60594;50.204;8.844;2023-05-03T10:39:35;100966.63;;;16.53;47.30
72570;BME280;60594;50.204;8.844;2023-05-03T10:42:07;100961.94;;;16.55;46.85
72570;BME280;60594;50.204;8.844;2023-05-03T10:44:39;100972.06;;;16.14;45.78
72570;BME280;60594;50.204;8.844;2023-05-03T10:47:22;100965.56;;;15.97;49.96
72570;BME280;60594;50.204;8.844;2023-05-03T10:55:12;100960.53;;;16.42;51.61
72570;BME280;60594;50.204;8.844;2023-05-03T10:57:41;100956.34;;;15.90;46.26
72570;BME280;60594;50.204;8.844;2023-05-03T11:05:21;100961.06;;;16.83;48.98
72570;BME280;60594;50.204;8.844;2023-05-03T11:07:49;100954.63;;;17.04;48.80
72570;BME280;60594;50.204;8.844;2023-05-03T11:10:19;100962.03;;;17.02;44.64
72570;BME280;60594;50.204;8.844;2023-05-03T11:12:47;100954.13;;;16.91;48.95
72570;BME280;60594;50.204;8.844;2023-05-03T11:15:14;100953.84;;;16.84;48.04
72570;BME280;60594;50.204;8.844;2023-05-03T11:17:41;100951.56;;;16.89;44.36
72570;BME280;60594;50.204;8.844;2023-05-03T11:20:08;100951.16;;;16.94;47.94
72570;BME280;60594;50.204;8.844;2023-05-03T11:22:35;100935.81;;;16.94;46.78
72570;BME280;60594;50.204;8.844;2023-05-03T11:25:02;100939.13;;;16.78;45.87
72570;BME280;60594;50.204;8.844;2023-05-03T11:27:28;100939.91;;;16.98;46.60
72570;BME280;60594;50.204;8.844;2023-05-03T11:29:55;100932.63;;;17.18;46.73
72570;BME280;60594;50.204;8.844;2023-05-03T11:32:27;100930.63;;;17.29;46.64
72570;BME280;60594;50.204;8.844;2023-05-03T11:34:55;100921.09;;;17.35;43.56
72570;BME280;60594;50.204;8.844;2023-05-03T11:37:27;100915.25;;;17.49;47.02
72570;BME280;60594;50.204;8.844;2023-05-03T11:39:54;100914.44;;;17.29;44.51
72570;BME280;60594;50.204;8.844;2023-05-03T11:42:21;100914.69;;;16.99;42.94
72570;BME280;60594;50.204;8.844;2023-05-03T11:44:51;100906.25;;;17.21;49.46
72570;BME280;60594;50.204;8.844;2023-05-03T11:47:18;100918.22;;;17.46;45.70
72570;BME280;60594;50.204;8.844;2023-05-03T11:49:56;100923.38;;;17.66;47.38
72570;BME280;60594;50.204;8.844;2023-05-03T11:52:25;100915.78;;;17.16;42.44
72570;BME280;60594;50.204;8.844;2023-05-03T11:54:55;100914.28;;;16.84;43.98
72570;BME280;60594;50.204;8.844;2023-05-03T11:57:24;100914.16;;;17.42;44.90
72570;BME280;60594;50.204;8.844;2023-05-03T11:59:50;100915.81;;;17.70;45.79
72570;BME280;60594;50.204;8.844;2023-05-03T12:02:17;100913.91;;;17.80;41.34
72570;BME280;60594;50.204;8.844;2023-05-03T12:04:43;100912.78;;;18.00;43.73
72570;BME280;60594;50.204;8.844;2023-05-03T12:07:11;100905.09;;;18.22;43.46
72570;BME280;60594;50.204;8.844;2023-05-03T12:09:41;100903.63;;;18.28;39.53
72570;BME280;60594;50.204;8.844;2023-05-03T12:12:09;100898.06;;;17.94;42.36
72570;BME280;60594;50.204;8.844;2023-05-03T12:14:58;100891.50;;;17.79;40.19
72570;BME280;60594;50.204;8.844;2023-05-03T12:17:39;100891.31;;;17.63;41.41
72570;BME280;60594;50.204;8.844;2023-05-03T12:20:17;100875.88;;;17.83;43.80
72570;BME280;60594;50.204;8.844;2023-05-03T12:22:49;100880.81;;;18.05;41.75
72570;BME280;60594;50.204;8.844;2023-05-03T12:25:16;100882.19;;;18.26;43.85
72570;BME280;60594;50.204;8.844;2023-05-03T12:27:42;100883.00;;;18.36;43.01
72570;BME280;60594;50.204;8.844;2023-05-03T12:30:09;100873.03;;;18.02;39.29
72570;BME280;60594;50.204;8.844;2023-05-03T12:32:37;100877.81;;;18.25;42.13
72570;BME280;60594;50.204;8.844;2023-05-03T12:35:06;100881.34;;;18.26;40.55
72570;BME280;60594;50.204;8.844;2023-05-03T12:37:35;100872.41;;;18.43;40.44
72570;BME280;60594;50.204;8.844;2023-05-03T12:40:02;100870.84;;;18.58;39.19
72570;BME280;60594;50.204;8.844;2023-05-03T12:42:30;100857.97;;;18.52;38.65
72570;BME280;60594;50.204;8.844;2023-05-03T12:44:59;100864.66;;;18.65;42.79
72570;BME280;60594;50.204;8.844;2023-05-03T12:47:27;100858.03;;;18.85;44.55
72570;BME280;60594;50.204;8.844;2023-05-03T12:49:53;100854.97;;;18.80;44.26
72570;BME280;60594;50.204;8.844;2023-05-03T12:52:20;100850.00;;;19.01;43.30
72570;BME280;60594;50.204;8.844;2023-05-03T12:54:52;100840.75;;;19.04;40.74
72570;BME280;60594;50.204;8.844;2023-05-03T12:57:19;100841.22;;;18.99;36.45
72570;BME280;60594;50.204;8.844;2023-05-03T12:59:47;100846.28;;;18.94;36.39
72570;BME280;60594;50.204;8.844;2023-05-03T13:02:20;100843.06;;;18.99;40.96
72570;BME280;60594;50.204;8.844;2023-05-03T13:05:08;100838.97;;;19.20;43.39
72570;BME280;60594;50.204;8.844;2023-05-03T13:07:35;100830.06;;;19.28;38.95
72570;BME280;60594;50.204;8.844;2023-05-03T13:10:02;100819.97;;;19.30;41.71
72570;BME280;60594;50.204;8.844;2023-05-03T13:12:29;100815.13;;;19.16;37.90
72570;BME280;60594;50.204;8.844;2023-05-03T13:15:00;100819.41;;;18.93;35.55
72570;BME280;60594;50.204;8.844;2023-05-03T13:17:28;100823.28;;;18.90;41.29
72570;BME280;60594;50.204;8.844;2023-05-03T13:19:57;100813.34;;;18.99;41.38
72570;BME280;60594;50.204;8.844;2023-05-03T13:22:24;100804.22;;;19.25;40.40
72570;BME280;60594;50.204;8.844;2023-05-03T13:24:52;100808.28;;;19.29;37.31
72570;BME280;60594;50.204;8.844;2023-05-03T13:27:19;100797.75;;;19.18;42.22